createdAt,value
2019-03-15T00:01:34.588Z,98943.53
2019-03-15T00:04:03.327Z,98940.36
2019-03-15T00:06:32.352Z,98939.74
2019-03-15T00:09:01.085Z,98939.99
2019-03-15T00:11:29.806Z,98945.09
2019-03-15T00:13:58.600Z,98942.33
2019-03-15T00:16:27.554Z,98943.48
2019-03-15T00:18:56.286Z,98935.41
2019-03-15T00:21:25.071Z,98931.41
2019-03-15T00:23:53.788Z,98930.66
2019-03-15T00:26:22.509Z,98926.87
2019-03-15T00:28:51.381Z,98928.98
2019-03-15T00:31:20.101Z,98929.07
2019-03-15T00:33:48.820Z,98927.80
2019-03-15T00:36:17.714Z,98928.33
2019-03-15T00:38:46.430Z,98919.50
2019-03-15T00:41:15.148Z,98915.83
2019-03-15T00:43:44.018Z,98909.44
2019-03-15T00:46:12.748Z,98915.87
2019-03-15T00:48:41.465Z,98914.62
2019-03-15T00:51:10.249Z,98914.98
2019-03-15T00:53:38.973Z,98914.23
2019-03-15T00:56:07.696Z,98914.94
2019-03-15T00:58:36.693Z,98915.08
2019-03-15T01:01:05.411Z,98909.59
2019-03-15T01:03:34.133Z,98907.88
2019-03-15T01:06:04.200Z,98912.34
2019-03-15T01:08:32.919Z,98910.04
2019-03-15T01:11:01.647Z,98905.83
2019-03-15T01:13:30.849Z,98902.72
2019-03-15T01:15:59.572Z,98905.70
2019-03-15T01:18:28.329Z,98903.56
2019-03-15T01:20:57.111Z,98904.63
2019-03-15T01:23:25.839Z,98904.89
2019-03-15T01:25:54.564Z,98905.61
2019-03-15T01:28:23.353Z,98903.30
2019-03-15T01:30:52.079Z,98904.02
2019-03-15T01:33:20.810Z,98904.63
2019-03-15T01:35:49.665Z,98905.19
2019-03-15T01:38:18.387Z,98908.17
2019-03-15T01:40:48.782Z,98905.98
2019-03-15T01:43:17.665Z,98908.52
2019-03-15T01:45:46.481Z,98899.56
2019-03-15T01:48:15.200Z,98898.01
2019-03-15T01:50:44.006Z,98888.91
2019-03-15T01:53:12.723Z,98893.15
2019-03-15T01:55:41.780Z,98886.83
2019-03-15T01:58:10.503Z,98876.92
2019-03-15T02:00:40.126Z,98875.05
2019-03-15T02:03:08.847Z,98873.37
2019-03-15T02:05:37.608Z,98880.61
2019-03-15T02:08:06.340Z,98873.10
2019-03-15T02:10:35.055Z,98876.07
2019-03-15T02:13:04.014Z,98880.53
2019-03-15T02:15:32.743Z,98876.00
2019-03-15T02:18:01.464Z,98878.45
2019-03-15T02:20:30.249Z,98873.59
2019-03-15T02:22:58.964Z,98875.16
2019-03-15T02:25:27.739Z,98878.34
2019-03-15T02:27:56.534Z,98877.83
2019-03-15T02:30:25.268Z,98873.25
2019-03-15T02:32:53.986Z,98875.47
2019-03-15T02:35:22.780Z,98877.48
2019-03-15T02:37:51.460Z,98869.23
2019-03-15T02:40:20.180Z,98877.72
2019-03-15T02:42:49.395Z,98872.52
2019-03-15T02:45:18.125Z,98876.06
2019-03-15T02:47:46.887Z,98874.66
2019-03-15T02:50:15.727Z,98870.98
2019-03-15T02:52:44.486Z,98874.17
2019-03-15T02:55:13.204Z,98877.98
2019-03-15T02:57:42.417Z,98875.03
2019-03-15T03:00:11.236Z,98869.05
2019-03-15T03:02:39.977Z,98872.17
2019-03-15T03:05:11.698Z,98878.11
2019-03-15T03:07:40.414Z,98876.47
2019-03-15T03:10:09.740Z,98883.42
2019-03-15T03:12:38.524Z,98881.34
2019-03-15T03:15:08.251Z,98883.80
2019-03-15T03:17:36.978Z,98885.28
2019-03-15T03:20:07.254Z,98894.02
2019-03-15T03:22:36.593Z,98893.88
2019-03-15T03:25:06.528Z,98894.80
2019-03-15T03:27:35.324Z,98893.30
2019-03-15T03:30:04.835Z,98891.81
2019-03-15T03:32:33.566Z,98898.23
2019-03-15T03:35:02.502Z,98896.87
2019-03-15T03:37:31.245Z,98900.28
2019-03-15T03:40:01.338Z,98904.77
2019-03-15T03:42:30.740Z,98909.50
2019-03-15T03:44:59.463Z,98915.02
2019-03-15T03:47:28.188Z,98915.57
2019-03-15T03:49:57.034Z,98914.86
2019-03-15T03:52:25.764Z,98918.42
2019-03-15T03:54:54.476Z,98916.55
2019-03-15T03:57:23.582Z,98918.17
2019-03-15T03:59:52.301Z,98921.05
2019-03-15T04:02:21.027Z,98915.73
2019-03-15T04:04:50.046Z,98915.60
2019-03-15T04:07:18.974Z,98911.18
2019-03-15T04:09:47.691Z,98912.62
2019-03-15T04:12:16.714Z,98914.34
2019-03-15T04:14:45.432Z,98908.47
2019-03-15T04:17:14.156Z,98906.88
2019-03-15T04:19:43.386Z,98909.50
2019-03-15T04:22:12.108Z,98908.30
2019-03-15T04:24:40.905Z,98906.36
2019-03-15T04:27:10.264Z,98906.65
2019-03-15T04:29:38.987Z,98912.20
2019-03-15T04:32:07.728Z,98906.88
2019-03-15T04:34:36.573Z,98908.34
2019-03-15T04:37:05.377Z,98915.73
2019-03-15T04:39:34.101Z,98923.28
2019-03-15T04:42:02.970Z,98921.49
2019-03-15T04:44:32.734Z,98926.22
2019-03-15T04:47:01.468Z,98923.83
2019-03-15T04:49:30.599Z,98929.02
2019-03-15T04:51:59.325Z,98928.30
2019-03-15T04:54:28.058Z,98930.72
2019-03-15T04:56:56.818Z,98927.61
2019-03-15T04:59:25.546Z,98934.04
2019-03-15T05:01:54.273Z,98939.98
2019-03-15T05:04:23.528Z,98942.29
2019-03-15T05:06:52.247Z,98951.91
2019-03-15T05:09:21.099Z,98947.36
2019-03-15T05:11:50.091Z,98948.60
2019-03-15T05:14:19.013Z,98952.73
2019-03-15T05:16:47.728Z,98945.08
2019-03-15T05:19:16.542Z,98947.68
2019-03-15T05:21:45.267Z,98952.62
2019-03-15T05:24:13.991Z,98951.05
2019-03-15T05:26:42.803Z,98955.80
2019-03-15T05:29:11.532Z,98950.23
2019-03-15T05:31:40.257Z,98949.59
2019-03-15T05:34:09.122Z,98951.45
2019-03-15T05:36:37.947Z,98955.80
2019-03-15T05:39:07.279Z,98954.98
2019-03-15T05:41:36.043Z,98956.44
2019-03-15T05:44:04.751Z,98959.64
2019-03-15T05:46:33.601Z,98962.23
2019-03-15T05:49:04.708Z,98964.78
2019-03-15T05:51:33.084Z,98967.63
2019-03-15T05:54:01.817Z,98970.20
2019-03-15T05:56:30.598Z,98973.44
2019-03-15T05:58:59.294Z,98978.20
2019-03-15T06:01:28.021Z,98976.90
2019-03-15T06:03:57.167Z,98976.14
2019-03-15T06:06:25.883Z,98985.29
2019-03-15T06:08:54.606Z,98981.75
2019-03-15T06:11:23.463Z,98988.34
2019-03-15T06:13:52.184Z,98992.45
2019-03-15T06:16:20.906Z,98999.45
2019-03-15T06:18:49.786Z,99004.77
2019-03-15T06:21:18.505Z,98998.59
2019-03-15T06:23:47.233Z,99003.81
2019-03-15T06:26:16.503Z,99004.88
2019-03-15T06:28:45.243Z,99001.29
2019-03-15T06:31:13.978Z,99011.61
2019-03-15T06:33:43.171Z,99010.27
2019-03-15T06:36:11.894Z,99014.61
2019-03-15T06:38:40.614Z,99017.51
2019-03-15T06:41:09.487Z,99017.85
2019-03-15T06:43:38.213Z,99020.81
2019-03-15T06:46:06.944Z,99032.48
2019-03-15T06:48:35.735Z,99030.30
2019-03-15T06:51:04.455Z,99027.24
2019-03-15T06:53:33.178Z,99029.61
2019-03-15T06:56:02.026Z,99036.97
2019-03-15T06:58:30.748Z,99041.61
2019-03-15T07:00:59.484Z,99036.00
2019-03-15T07:03:28.647Z,99042.67
2019-03-15T07:05:57.363Z,99042.11
2019-03-15T07:08:26.068Z,99042.70
2019-03-15T07:10:54.883Z,99040.17
2019-03-15T07:13:23.619Z,99046.63
2019-03-15T07:15:52.341Z,99050.30
2019-03-15T07:18:21.235Z,99044.48
2019-03-15T07:20:49.963Z,99044.49
2019-03-15T07:23:18.689Z,99049.27
2019-03-15T07:25:47.450Z,99044.54
2019-03-15T07:28:16.182Z,99047.85
2019-03-15T07:30:44.960Z,99049.53
2019-03-15T07:33:13.718Z,99044.83
2019-03-15T07:35:42.449Z,99044.52
2019-03-15T07:38:11.172Z,99050.52
2019-03-15T07:40:40.021Z,99049.47
2019-03-15T07:43:08.733Z,99041.06
2019-03-15T07:45:37.459Z,99047.74
2019-03-15T07:48:06.364Z,99050.27
2019-03-15T07:50:35.079Z,99049.91
2019-03-15T07:53:03.812Z,99041.06
2019-03-15T07:55:32.661Z,99047.34
2019-03-15T07:58:01.386Z,99053.95
2019-03-15T08:00:30.103Z,99048.04
2019-03-15T08:02:58.983Z,99044.91
2019-03-15T08:05:27.730Z,99043.05
2019-03-15T08:07:56.449Z,99046.78
2019-03-15T08:10:25.300Z,99048.22
2019-03-15T08:12:54.027Z,99050.66
2019-03-15T08:15:22.751Z,99046.14
2019-03-15T08:17:51.736Z,99040.37
2019-03-15T08:20:20.464Z,99046.13
2019-03-15T08:22:49.183Z,99039.36
2019-03-15T08:25:17.984Z,99041.88
2019-03-15T08:27:46.709Z,99039.23
2019-03-15T08:30:16.638Z,99043.19
2019-03-15T08:32:45.482Z,99041.69
2019-03-15T08:35:14.804Z,99040.85
2019-03-15T08:37:43.531Z,99034.75
2019-03-15T08:40:13.947Z,99026.97
2019-03-15T08:42:42.687Z,99024.70
2019-03-15T08:45:16.918Z,99023.63
2019-03-15T08:47:45.755Z,99032.36
2019-03-15T08:50:15.855Z,99028.69
2019-03-15T08:52:44.579Z,99032.77
2019-03-15T08:55:14.454Z,99034.29
2019-03-15T08:57:43.178Z,99031.68
2019-03-15T09:00:16.764Z,99033.62
2019-03-15T09:02:45.643Z,99026.44
2019-03-15T09:05:15.266Z,99025.19
2019-03-15T09:07:43.989Z,99027.78
2019-03-15T09:10:22.688Z,99028.55
2019-03-15T09:12:45.661Z,99023.65
2019-03-15T09:15:14.682Z,99023.91
2019-03-15T09:17:43.870Z,99023.97
2019-03-15T09:20:13.991Z,99015.64
2019-03-15T09:22:42.723Z,99013.92
2019-03-15T09:25:19.400Z,99005.92
2019-03-15T09:27:45.624Z,99000.66
2019-03-15T09:30:23.768Z,99001.98
2019-03-15T09:32:48.311Z,99007.24
2019-03-15T09:35:17.065Z,98996.63
2019-03-15T09:37:47.693Z,98995.48
2019-03-15T09:40:19.254Z,98996.91
2019-03-15T09:42:47.994Z,98994.27
2019-03-15T09:45:19.968Z,98990.56
2019-03-15T09:47:48.910Z,98987.28
2019-03-15T09:50:26.488Z,98983.41
2019-03-15T09:52:48.194Z,98988.13
2019-03-15T09:55:17.168Z,98984.30
2019-03-15T09:57:45.891Z,98988.44
2019-03-15T10:00:16.588Z,98990.22
2019-03-15T10:02:45.469Z,98984.05
2019-03-15T10:05:14.193Z,98981.98
2019-03-15T10:07:43.876Z,98980.17
2019-03-15T10:10:20.328Z,98977.48
2019-03-15T10:12:49.043Z,98980.82
2019-03-15T10:15:18.254Z,98974.64
2019-03-15T10:17:47.522Z,98973.16
2019-03-15T10:20:16.545Z,98969.73
2019-03-15T10:22:45.267Z,98970.70
2019-03-15T10:25:17.882Z,98965.37
2019-03-15T10:27:46.609Z,98968.89
2019-03-15T10:30:17.491Z,98973.00
2019-03-15T10:32:46.460Z,98973.38
2019-03-15T10:35:15.197Z,98966.23
2019-03-15T10:37:43.929Z,98965.29
2019-03-15T10:40:18.504Z,98966.13
2019-03-15T10:42:47.221Z,98964.55
2019-03-15T10:45:16.038Z,98966.68
2019-03-15T10:47:44.809Z,98956.68
2019-03-15T10:50:18.871Z,98952.53
2019-03-15T10:52:47.693Z,98953.60
2019-03-15T10:55:16.554Z,98945.78
2019-03-15T10:57:45.276Z,98941.33
2019-03-15T11:00:20.435Z,98938.56
2019-03-15T11:02:49.382Z,98940.73
2019-03-15T11:05:18.097Z,98930.53
2019-03-15T11:07:46.810Z,98935.28
2019-03-15T11:10:15.877Z,98942.16
2019-03-15T11:12:44.592Z,98936.83
2019-03-15T11:15:14.616Z,98931.84
2019-03-15T11:17:43.577Z,98929.89
2019-03-15T11:20:12.916Z,98920.50
2019-03-15T11:22:41.726Z,98920.69
2019-03-15T11:25:11.867Z,98917.86
2019-03-15T11:27:40.659Z,98921.36
2019-03-15T11:30:16.619Z,98920.44
2019-03-15T11:32:45.697Z,98920.30
2019-03-15T11:35:14.414Z,98916.64
2019-03-15T11:37:43.728Z,98915.16
2019-03-15T11:40:19.174Z,98915.31
2019-03-15T11:42:46.808Z,98914.96
2019-03-15T11:45:15.590Z,98907.02
2019-03-15T11:48:01.997Z,98904.23
2019-03-15T11:50:16.925Z,98911.18
2019-03-15T11:52:45.769Z,98900.05
2019-03-15T11:55:14.485Z,98894.94
2019-03-15T11:57:43.216Z,98901.81
2019-03-15T12:00:19.900Z,98891.20
2019-03-15T12:02:48.619Z,98898.07
2019-03-15T12:05:17.346Z,98894.83
2019-03-15T12:07:46.126Z,98891.23
2019-03-15T12:10:16.997Z,98891.25
2019-03-15T12:12:45.692Z,98889.78
2019-03-15T12:15:18.967Z,98889.52
2019-03-15T12:17:47.686Z,98887.09
2019-03-15T12:20:16.403Z,98888.47
2019-03-15T12:22:45.177Z,98891.19
2019-03-15T12:25:14.095Z,98876.86
2019-03-15T12:27:42.816Z,98885.19
2019-03-15T12:30:15.962Z,98885.14
2019-03-15T12:32:44.696Z,98881.55
2019-03-15T12:35:14.314Z,98885.42
2019-03-15T12:37:43.062Z,98886.66
2019-03-15T12:40:13.302Z,98881.27
2019-03-15T12:42:42.013Z,98882.55
2019-03-15T12:45:12.165Z,98884.75
2019-03-15T12:47:41.441Z,98875.83
2019-03-15T12:50:16.823Z,98882.42
2019-03-15T12:52:48.180Z,98889.02
2019-03-15T12:55:16.503Z,98884.41
2019-03-15T12:57:48.797Z,98887.42
2019-03-15T13:00:18.053Z,98885.23
2019-03-15T13:02:46.774Z,98892.41
2019-03-15T13:05:15.537Z,98882.34
2019-03-15T13:07:44.260Z,98880.03
2019-03-15T13:10:15.055Z,98892.08
2019-03-15T13:12:43.839Z,98886.47
2019-03-15T13:15:15.501Z,98884.69
2019-03-15T13:17:44.234Z,98882.53
2019-03-15T13:20:15.473Z,98885.41
2019-03-15T13:22:44.199Z,98879.69
2019-03-15T13:25:13.406Z,98885.02
2019-03-15T13:27:42.520Z,98884.11
2019-03-15T13:30:15.148Z,98894.35
2019-03-15T13:32:43.866Z,98894.82
2019-03-15T13:35:13.726Z,98893.47
2019-03-15T13:37:43.375Z,98887.06
2019-03-15T13:40:19.957Z,98886.82
2019-03-15T13:42:48.779Z,98883.66
2019-03-15T13:45:17.929Z,98883.97
2019-03-15T13:47:46.733Z,98876.18
2019-03-15T13:50:19.605Z,98875.43
2019-03-15T13:52:48.335Z,98869.25
2019-03-15T13:55:17.291Z,98873.73
2019-03-15T13:57:46.010Z,98873.68
2019-03-15T14:00:18.695Z,98879.00
2019-03-15T14:02:48.042Z,98872.13
2019-03-15T14:05:16.767Z,98879.98
2019-03-15T14:07:45.497Z,98881.37
2019-03-15T14:10:15.394Z,98876.86
2019-03-15T14:12:44.122Z,98880.58
2019-03-15T14:15:13.951Z,98877.97
2019-03-15T14:17:42.835Z,98881.22
2019-03-15T14:20:12.759Z,98884.14
2019-03-15T14:22:44.401Z,98882.79
2019-03-15T14:25:15.402Z,98887.58
2019-03-15T14:27:49.809Z,98879.12
2019-03-15T14:30:29.520Z,98883.70
2019-03-15T14:32:58.520Z,98880.44
2019-03-15T14:35:27.229Z,98882.08
2019-03-15T14:37:56.267Z,98881.48
2019-03-15T14:40:25.503Z,98889.08
2019-03-15T14:42:54.518Z,98887.45
2019-03-15T14:45:26.148Z,98884.73
2019-03-15T14:47:55.058Z,98885.75
2019-03-15T14:50:23.923Z,98888.17
2019-03-15T14:52:52.773Z,98889.45
2019-03-15T14:55:21.722Z,98892.08
2019-03-15T14:57:52.971Z,98889.25
2019-03-15T15:00:21.634Z,98894.23
2019-03-15T15:02:50.425Z,98896.73
2019-03-15T15:05:19.119Z,98891.38
2019-03-15T15:07:47.996Z,98901.13
2019-03-15T15:10:17.421Z,98902.03
2019-03-15T15:12:46.253Z,98907.31
2019-03-15T15:15:16.233Z,98902.49
2019-03-15T15:17:44.961Z,98911.68
2019-03-15T15:20:13.988Z,98909.87
2019-03-15T15:22:43.105Z,98914.94
2019-03-15T15:25:12.835Z,98914.82
2019-03-15T15:27:41.559Z,98920.30
2019-03-15T15:30:13.262Z,98929.79
2019-03-15T15:32:41.990Z,98925.95
2019-03-15T15:35:12.031Z,98932.73
2019-03-15T15:37:40.923Z,98927.02
2019-03-15T15:40:14.659Z,98931.86
2019-03-15T15:42:43.379Z,98934.38
2019-03-15T15:45:13.484Z,98941.45
2019-03-15T15:47:42.172Z,98947.52
2019-03-15T15:50:15.814Z,98949.41
2019-03-15T15:52:44.997Z,98949.86
2019-03-15T15:55:14.928Z,98953.74
2019-03-15T15:57:43.663Z,98953.52
2019-03-15T16:00:14.805Z,98951.33
2019-03-15T16:02:43.541Z,98960.06
2019-03-15T16:05:12.470Z,98968.30
2019-03-15T16:07:41.382Z,98963.91
2019-03-15T16:10:12.767Z,98964.53
2019-03-15T16:12:41.492Z,98963.30
2019-03-15T16:15:12.649Z,98970.22
2019-03-15T16:17:41.377Z,98972.97
2019-03-15T16:20:11.597Z,98974.82
2019-03-15T16:22:40.739Z,98977.97
2019-03-15T16:25:10.716Z,98979.99
2019-03-15T16:27:39.419Z,98985.72
2019-03-15T16:30:16.732Z,98986.53
2019-03-15T16:32:45.447Z,98987.63
2019-03-15T16:35:14.572Z,98995.01
2019-03-15T16:37:43.559Z,98997.94
2019-03-15T16:40:14.258Z,99008.53
2019-03-15T16:42:42.982Z,99017.23
2019-03-15T16:45:23.732Z,99021.77
2019-03-15T16:47:52.451Z,99015.72
2019-03-15T16:50:21.273Z,99024.73
2019-03-15T16:52:50.417Z,99031.34
2019-03-15T16:55:19.150Z,99028.94
2019-03-15T16:57:47.869Z,99037.21
2019-03-15T17:00:17.699Z,99040.73
2019-03-15T17:02:46.530Z,99045.95
2019-03-15T17:05:16.644Z,99048.81
2019-03-15T17:07:45.518Z,99050.59
2019-03-15T17:10:17.159Z,99058.77
2019-03-15T17:12:45.988Z,99056.96
2019-03-15T17:15:22.725Z,99056.03
2019-03-15T17:17:51.440Z,99059.51
2019-03-15T17:20:20.165Z,99069.83
2019-03-15T17:22:50.214Z,99071.63
2019-03-15T17:25:18.934Z,99072.23
2019-03-15T17:27:47.746Z,99075.17
2019-03-15T17:30:17.425Z,99075.17
2019-03-15T17:32:46.249Z,99079.19
2019-03-15T17:35:17.128Z,99084.70
2019-03-15T17:37:46.316Z,99083.98
2019-03-15T17:40:17.044Z,99088.14
2019-03-15T17:42:45.735Z,99092.01
2019-03-15T17:45:14.702Z,99094.19
2019-03-15T17:47:43.531Z,99102.86
2019-03-15T17:50:19.698Z,99105.88
2019-03-15T17:52:48.416Z,99108.19
2019-03-15T17:55:17.740Z,99113.41
2019-03-15T17:57:46.659Z,99120.29
2019-03-15T18:00:28.745Z,99124.81
2019-03-15T18:02:57.645Z,99123.61
2019-03-15T18:05:26.363Z,99128.18
2019-03-15T18:07:57.170Z,99130.67
2019-03-15T18:10:25.925Z,99124.67
2019-03-15T18:12:54.653Z,99133.34
2019-03-15T18:15:23.373Z,99137.88
2019-03-15T18:17:52.560Z,99142.85
2019-03-15T18:20:21.356Z,99145.67
2019-03-15T18:22:50.083Z,99148.60
2019-03-15T18:25:18.887Z,99158.38
2019-03-15T18:27:48.214Z,99156.66
2019-03-15T18:30:17.838Z,99157.64
2019-03-15T18:32:47.096Z,99160.27
2019-03-15T18:35:15.829Z,99165.28
2019-03-15T18:37:44.575Z,99161.54
2019-03-15T18:40:15.327Z,99166.70
2019-03-15T18:42:44.089Z,99165.92
2019-03-15T18:45:19.284Z,99172.05
2019-03-15T18:47:48.297Z,99172.83
2019-03-15T18:50:22.187Z,99177.63
2019-03-15T18:52:51.184Z,99176.05
2019-03-15T18:55:20.015Z,99186.97
2019-03-15T18:57:48.742Z,99189.19
2019-03-15T19:00:19.672Z,99191.84
2019-03-15T19:02:48.396Z,99194.34
2019-03-15T19:05:17.266Z,99197.11
2019-03-15T19:07:46.264Z,99202.04
2019-03-15T19:10:15.783Z,99201.14
2019-03-15T19:12:44.599Z,99206.31
2019-03-15T19:15:16.022Z,99207.58
2019-03-15T19:17:44.737Z,99212.66
2019-03-15T19:20:14.856Z,99208.41
2019-03-15T19:22:43.624Z,99215.84
2019-03-15T19:25:13.256Z,99214.02
2019-03-15T19:27:42.090Z,99220.66
2019-03-15T19:30:18.794Z,99223.61
2019-03-15T19:32:47.517Z,99229.20
2019-03-15T19:35:16.341Z,99238.73
2019-03-15T19:37:45.102Z,99248.37
2019-03-15T19:40:22.901Z,99243.05
2019-03-15T19:42:53.616Z,99245.84
2019-03-15T19:45:22.566Z,99238.13
2019-03-15T19:47:51.287Z,99244.84
2019-03-15T19:50:21.475Z,99245.88
2019-03-15T19:52:50.205Z,99255.00
2019-03-15T19:55:18.922Z,99257.50
2019-03-15T19:57:47.779Z,99252.23
2019-03-15T20:00:17.857Z,99251.34
2019-03-15T20:02:46.670Z,99251.69
2019-03-15T20:05:15.436Z,99247.17
2019-03-15T20:07:44.320Z,99246.04
2019-03-15T20:10:17.539Z,99255.30
2019-03-15T20:12:46.684Z,99252.80
2019-03-15T20:15:17.493Z,99256.27
2019-03-15T20:17:46.189Z,99259.99
2019-03-15T20:20:16.021Z,99258.28
2019-03-15T20:22:44.794Z,99257.35
2019-03-15T20:25:14.816Z,99251.45
2019-03-15T20:27:43.808Z,99252.52
2019-03-15T20:30:25.577Z,99262.52
2019-03-15T20:32:51.014Z,99250.03
2019-03-15T20:35:19.739Z,99247.70
2019-03-15T20:37:48.460Z,99259.32
2019-03-15T20:40:17.438Z,99263.84
2019-03-15T20:42:46.167Z,99254.65
2019-03-15T20:45:28.786Z,99248.48
2019-03-15T20:47:57.546Z,99248.12
2019-03-15T20:50:26.258Z,99252.04
2019-03-15T20:53:07.718Z,99247.83
2019-03-15T20:55:28.444Z,99253.61
2019-03-15T20:57:56.035Z,99266.41
2019-03-15T21:00:35.582Z,99262.41
2019-03-15T21:02:55.835Z,99267.00
2019-03-15T21:05:24.647Z,99265.12
2019-03-15T21:07:53.546Z,99268.20
2019-03-15T21:10:22.269Z,99260.05
2019-03-15T21:12:50.995Z,99264.70
2019-03-15T21:15:19.797Z,99274.05
2019-03-15T21:17:48.470Z,99271.44
2019-03-15T21:20:22.682Z,99269.63
2019-03-15T21:22:50.947Z,99275.03
2019-03-15T21:25:19.622Z,99279.81
2019-03-15T21:27:54.260Z,99285.06
2019-03-15T21:30:26.258Z,99292.69
2019-03-15T21:32:54.930Z,99289.34
2019-03-15T21:35:23.621Z,99284.48
2019-03-15T21:37:52.458Z,99282.25
2019-03-15T21:40:22.273Z,99287.60
2019-03-15T21:42:50.942Z,99281.00
2019-03-15T21:45:19.711Z,99281.78
2019-03-15T21:47:48.438Z,99277.94
2019-03-15T21:50:20.073Z,99279.08
2019-03-15T21:52:48.863Z,99280.56
2019-03-15T21:55:17.586Z,99283.59
2019-03-15T21:57:46.312Z,99279.26
2019-03-15T22:00:19.002Z,99286.88
2019-03-15T22:02:47.738Z,99293.98
2019-03-15T22:05:16.511Z,99297.77
2019-03-15T22:07:45.281Z,99297.80
2019-03-15T22:10:15.966Z,99305.38
2019-03-15T22:12:44.792Z,99295.82
2019-03-15T22:15:14.261Z,99288.60
2019-03-15T22:17:43.293Z,99285.80
2019-03-15T22:20:14.233Z,99295.06
2019-03-15T22:22:43.105Z,99293.41
2019-03-15T22:25:11.831Z,99290.16
2019-03-15T22:27:40.570Z,99288.59
2019-03-15T22:30:16.016Z,99290.40
2019-03-15T22:32:44.733Z,99288.59
2019-03-15T22:35:14.927Z,99285.27
2019-03-15T22:37:43.813Z,99295.80
2019-03-15T22:40:15.597Z,99298.44
2019-03-15T22:42:44.335Z,99296.17
2019-03-15T22:45:14.503Z,99295.98
2019-03-15T22:47:43.248Z,99292.87
2019-03-15T22:50:13.708Z,99302.52
2019-03-15T22:52:42.899Z,99311.11
2019-03-15T22:55:11.959Z,99298.73
2019-03-15T22:57:40.641Z,99304.42
2019-03-15T23:00:21.450Z,99300.71
2019-03-15T23:02:50.290Z,99299.16
2019-03-15T23:05:19.057Z,99298.61
2019-03-15T23:07:47.870Z,99296.98
2019-03-15T23:10:16.596Z,99310.13
2019-03-15T23:12:46.781Z,99310.92
2019-03-15T23:15:15.569Z,99307.77
2019-03-15T23:17:44.284Z,99319.39
2019-03-15T23:20:14.032Z,99309.60
2019-03-15T23:22:42.881Z,99306.53
2019-03-15T23:25:11.707Z,99303.43
2019-03-15T23:27:40.423Z,99303.74
2019-03-15T23:30:17.793Z,99317.42
2019-03-15T23:32:46.523Z,99318.50
2019-03-15T23:35:15.345Z,99310.74
2019-03-15T23:37:44.078Z,99312.75
2019-03-15T23:40:13.999Z,99315.90
2019-03-15T23:42:42.816Z,99301.69
2019-03-15T23:45:12.095Z,99297.02
2019-03-15T23:47:40.905Z,99305.59
2019-03-15T23:50:16.478Z,99309.48
2019-03-15T23:52:45.352Z,99297.03
2019-03-15T23:55:14.071Z,99298.94
2019-03-15T23:57:42.790Z,99296.38
